sensor_id;sensor_type;location;lat;lon;timestamp;P1;durP1;ratioP1;P2;durP2;ratioP2
44270;SDS011;29963;44.594;11.368;2023-02-11T00:00:22;38.38;;;23.75;;
44270;SDS011;29963;44.594;11.368;2023-02-11T00:02:51;41.00;;;25.30;;
44270;SDS011;29963;44.594;11.368;2023-02-11T00:05:16;41.55;;;26.27;;
44270;SDS011;29963;44.594;11.368;2023-02-11T00:07:42;45.03;;;27.58;;
44270;SDS011;29963;44.594;11.368;2023-02-11T00:10:08;41.90;;;26.40;;
44270;SDS011;29963;44.594;11.368;2023-02-11T00:12:34;45.03;;;28.70;;
44270;SDS011;29963;44.594;11.368;2023-02-11T00:15:00;42.13;;;26.15;;
44270;SDS011;29963;44.594;11.368;2023-02-11T00:17:26;37.90;;;26.00;;
44270;SDS011;29963;44.594;11.368;2023-02-11T00:19:52;38.25;;;26.02;;
44270;SDS011;29963;44.594;11.368;2023-02-11T00:22:18;42.83;;;26.45;;
44270;SDS011;29963;44.594;11.368;2023-02-11T00:24:44;39.33;;;25.05;;
44270;SDS011;29963;44.594;11.368;2023-02-11T00:27:10;38.75;;;26.30;;
44270;SDS011;29963;44.594;11.368;2023-02-11T00:29:36;40.50;;;26.55;;
44270;SDS011;29963;44.594;11.368;2023-02-11T00:32:02;40.53;;;26.80;;
44270;SDS011;29963;44.594;11.368;2023-02-11T00:34:32;42.55;;;26.58;;
44270;SDS011;29963;44.594;11.368;2023-02-11T00:36:58;40.28;;;26.52;;
44270;SDS011;29963;44.594;11.368;2023-02-11T00:39:24;41.90;;;25.95;;
44270;SDS011;29963;44.594;11.368;2023-02-11T00:41:49;43.42;;;25.33;;
44270;SDS011;29963;44.594;11.368;2023-02-11T00:44:15;43.20;;;25.55;;
44270;SDS011;29963;44.594;11.368;2023-02-11T00:46:41;38.13;;;24.20;;
44270;SDS011;29963;44.594;11.368;2023-02-11T00:49:07;40.05;;;26.52;;
44270;SDS011;29963;44.594;11.368;2023-02-11T00:51:35;47.92;;;28.80;;
44270;SDS011;29963;44.594;11.368;2023-02-11T00:54:01;37.03;;;24.42;;
44270;SDS011;29963;44.594;11.368;2023-02-11T00:56:27;46.08;;;27.58;;
44270;SDS011;29963;44.594;11.368;2023-02-11T00:58:52;35.40;;;23.92;;
44270;SDS011;29963;44.594;11.368;2023-02-11T01:01:18;38.58;;;24.75;;
44270;SDS011;29963;44.594;11.368;2023-02-11T01:03:44;47.47;;;28.23;;
44270;SDS011;29963;44.594;11.368;2023-02-11T01:06:10;34.78;;;24.52;;
44270;SDS011;29963;44.594;11.368;2023-02-11T01:08:36;35.47;;;21.35;;
44270;SDS011;29963;44.594;11.368;2023-02-11T01:11:03;30.70;;;22.33;;
44270;SDS011;29963;44.594;11.368;2023-02-11T01:13:32;45.10;;;27.90;;
44270;SDS011;29963;44.594;11.368;2023-02-11T01:15:59;34.03;;;23.00;;
44270;SDS011;29963;44.594;11.368;2023-02-11T01:18:24;45.00;;;28.23;;
44270;SDS011;29963;44.594;11.368;2023-02-11T01:20:51;33.85;;;21.83;;
44270;SDS011;29963;44.594;11.368;2023-02-11T01:23:17;48.60;;;28.38;;
44270;SDS011;29963;44.594;11.368;2023-02-11T01:25:42;37.42;;;23.92;;
44270;SDS011;29963;44.594;11.368;2023-02-11T01:28:19;43.38;;;28.15;;
44270;SDS011;29963;44.594;11.368;2023-02-11T01:30:47;37.88;;;24.45;;
44270;SDS011;29963;44.594;11.368;2023-02-11T01:33:13;46.35;;;27.73;;
44270;SDS011;29963;44.594;11.368;2023-02-11T01:35:39;40.85;;;24.52;;
44270;SDS011;29963;44.594;11.368;2023-02-11T01:38:07;47.80;;;27.08;;
44270;SDS011;29963;44.594;11.368;2023-02-11T01:40:46;34.08;;;24.00;;
44270;SDS011;29963;44.594;11.368;2023-02-11T01:43:20;44.50;;;27.15;;
44270;SDS011;29963;44.594;11.368;2023-02-11T01:45:56;45.55;;;24.30;;
44270;SDS011;29963;44.594;11.368;2023-02-11T01:48:33;45.13;;;26.90;;
44270;SDS011;29963;44.594;11.368;2023-02-11T01:51:06;32.30;;;22.73;;
44270;SDS011;29963;44.594;11.368;2023-02-11T01:53:37;44.83;;;26.67;;
44270;SDS011;29963;44.594;11.368;2023-02-11T01:56:21;37.25;;;22.50;;
44270;SDS011;29963;44.594;11.368;2023-02-11T01:59:16;43.03;;;25.85;;
44270;SDS011;29963;44.594;11.368;2023-02-11T02:01:48;36.08;;;22.67;;
44270;SDS011;29963;44.594;11.368;2023-02-11T02:04:20;42.35;;;25.13;;
44270;SDS011;29963;44.594;11.368;2023-02-11T02:06:53;37.28;;;22.75;;
44270;SDS011;29963;44.594;11.368;2023-02-11T02:09:25;37.95;;;24.77;;
44270;SDS011;29963;44.594;11.368;2023-02-11T02:11:55;36.00;;;22.70;;
44270;SDS011;29963;44.594;11.368;2023-02-11T02:14:20;38.53;;;25.80;;
44270;SDS011;29963;44.594;11.368;2023-02-11T02:16:46;36.75;;;24.65;;
44270;SDS011;29963;44.594;11.368;2023-02-11T02:24:58;30.50;;;20.58;;
44270;SDS011;29963;44.594;11.368;2023-02-11T02:41:14;32.42;;;20.20;;
44270;SDS011;29963;44.594;11.368;2023-02-11T02:43:44;40.88;;;23.30;;
44270;SDS011;29963;44.594;11.368;2023-02-11T02:46:16;31.27;;;20.67;;
44270;SDS011;29963;44.594;11.368;2023-02-11T02:48:43;40.92;;;23.95;;
44270;SDS011;29963;44.594;11.368;2023-02-11T02:54:02;33.78;;;21.90;;
44270;SDS011;29963;44.594;11.368;2023-02-11T02:56:53;32.28;;;20.52;;
44270;SDS011;29963;44.594;11.368;2023-02-11T03:02:24;32.08;;;19.75;;
44270;SDS011;29963;44.594;11.368;2023-02-11T03:04:59;39.92;;;23.17;;
44270;SDS011;29963;44.594;11.368;2023-02-11T03:07:29;32.92;;;20.65;;
44270;SDS011;29963;44.594;11.368;2023-02-11T03:10:49;38.00;;;23.13;;
44270;SDS011;29963;44.594;11.368;2023-02-11T03:12:58;31.05;;;18.92;;
44270;SDS011;29963;44.594;11.368;2023-02-11T03:15:26;40.05;;;22.90;;
44270;SDS011;29963;44.594;11.368;2023-02-11T03:17:54;34.53;;;21.17;;
44270;SDS011;29963;44.594;11.368;2023-02-11T03:20:23;39.60;;;23.80;;
44270;SDS011;29963;44.594;11.368;2023-02-11T03:22:58;29.42;;;19.98;;
44270;SDS011;29963;44.594;11.368;2023-02-11T03:25:31;39.58;;;22.30;;
44270;SDS011;29963;44.594;11.368;2023-02-11T03:31:16;34.10;;;20.88;;
44270;SDS011;29963;44.594;11.368;2023-02-11T03:33:39;31.38;;;20.58;;
44270;SDS011;29963;44.594;11.368;2023-02-11T03:36:28;42.75;;;23.10;;
44270;SDS011;29963;44.594;11.368;2023-02-11T03:39:03;33.17;;;19.73;;
44270;SDS011;29963;44.594;11.368;2023-02-11T03:41:29;46.00;;;23.13;;
44270;SDS011;29963;44.594;11.368;2023-02-11T03:43:57;33.25;;;21.70;;
44270;SDS011;29963;44.594;11.368;2023-02-11T03:46:30;37.95;;;22.38;;
44270;SDS011;29963;44.594;11.368;2023-02-11T03:49:00;30.92;;;19.35;;
44270;SDS011;29963;44.594;11.368;2023-02-11T03:51:29;36.72;;;22.20;;
44270;SDS011;29963;44.594;11.368;2023-02-11T03:54:00;29.17;;;19.40;;
44270;SDS011;29963;44.594;11.368;2023-02-11T03:56:32;35.15;;;20.85;;
44270;SDS011;29963;44.594;11.368;2023-02-11T03:59:01;29.45;;;19.13;;
44270;SDS011;29963;44.594;11.368;2023-02-11T04:01:27;39.20;;;22.23;;
44270;SDS011;29963;44.594;11.368;2023-02-11T04:03:52;31.23;;;20.13;;
44270;SDS011;29963;44.594;11.368;2023-02-11T04:06:21;38.88;;;21.80;;
44270;SDS011;29963;44.594;11.368;2023-02-11T04:08:46;31.10;;;19.90;;
44270;SDS011;29963;44.594;11.368;2023-02-11T04:11:12;33.72;;;22.02;;
44270;SDS011;29963;44.594;11.368;2023-02-11T04:13:38;25.55;;;18.30;;
44270;SDS011;29963;44.594;11.368;2023-02-11T04:16:03;37.97;;;21.67;;
44270;SDS011;29963;44.594;11.368;2023-02-11T04:18:29;27.77;;;17.95;;
44270;SDS011;29963;44.594;11.368;2023-02-11T04:20:54;35.67;;;21.90;;
44270;SDS011;29963;44.594;11.368;2023-02-11T04:23:20;32.60;;;19.38;;
44270;SDS011;29963;44.594;11.368;2023-02-11T04:25:46;36.13;;;20.85;;
44270;SDS011;29963;44.594;11.368;2023-02-11T04:28:12;26.48;;;17.67;;
44270;SDS011;29963;44.594;11.368;2023-02-11T04:30:38;35.63;;;20.55;;
44270;SDS011;29963;44.594;11.368;2023-02-11T04:33:03;30.08;;;19.30;;
44270;SDS011;29963;44.594;11.368;2023-02-11T04:35:29;34.40;;;19.90;;
44270;SDS011;29963;44.594;11.368;2023-02-11T04:37:54;27.42;;;18.77;;
44270;SDS011;29963;44.594;11.368;2023-02-11T04:40:20;40.25;;;21.63;;
44270;SDS011;29963;44.594;11.368;2023-02-11T04:42:45;26.45;;;17.27;;
44270;SDS011;29963;44.594;11.368;2023-02-11T04:45:11;35.97;;;20.50;;
44270;SDS011;29963;44.594;11.368;2023-02-11T04:47:37;25.98;;;16.85;;
44270;SDS011;29963;44.594;11.368;2023-02-11T04:50:02;30.67;;;19.80;;
44270;SDS011;29963;44.594;11.368;2023-02-11T04:52:28;29.73;;;19.73;;
44270;SDS011;29963;44.594;11.368;2023-02-11T04:54:54;35.15;;;20.60;;
44270;SDS011;29963;44.594;11.368;2023-02-11T04:57:20;33.83;;;17.60;;
44270;SDS011;29963;44.594;11.368;2023-02-11T04:59:45;31.42;;;20.17;;
44270;SDS011;29963;44.594;11.368;2023-02-11T05:02:11;24.85;;;17.30;;
44270;SDS011;29963;44.594;11.368;2023-02-11T05:04:37;34.80;;;20.50;;
44270;SDS011;29963;44.594;11.368;2023-02-11T05:07:03;31.63;;;19.08;;
44270;SDS011;29963;44.594;11.368;2023-02-11T05:09:28;36.50;;;20.33;;
44270;SDS011;29963;44.594;11.368;2023-02-11T05:11:54;27.88;;;17.60;;
44270;SDS011;29963;44.594;11.368;2023-02-11T05:14:19;33.97;;;19.08;;
44270;SDS011;29963;44.594;11.368;2023-02-11T05:16:45;23.50;;;16.35;;
44270;SDS011;29963;44.594;11.368;2023-02-11T05:19:10;35.13;;;19.50;;
44270;SDS011;29963;44.594;11.368;2023-02-11T05:21:36;26.13;;;17.30;;
44270;SDS011;29963;44.594;11.368;2023-02-11T05:24:02;33.88;;;19.50;;
44270;SDS011;29963;44.594;11.368;2023-02-11T05:26:31;25.25;;;16.42;;
44270;SDS011;29963;44.594;11.368;2023-02-11T05:28:56;29.75;;;17.75;;
44270;SDS011;29963;44.594;11.368;2023-02-11T05:31:22;26.92;;;15.98;;
44270;SDS011;29963;44.594;11.368;2023-02-11T05:33:47;30.85;;;17.60;;
44270;SDS011;29963;44.594;11.368;2023-02-11T05:36:13;28.00;;;16.27;;
44270;SDS011;29963;44.594;11.368;2023-02-11T05:38:40;34.35;;;17.58;;
44270;SDS011;29963;44.594;11.368;2023-02-11T05:41:07;25.00;;;17.00;;
44270;SDS011;29963;44.594;11.368;2023-02-11T05:43:34;27.20;;;18.77;;
44270;SDS011;29963;44.594;11.368;2023-02-11T05:46:00;21.95;;;16.23;;
44270;SDS011;29963;44.594;11.368;2023-02-11T05:48:30;30.27;;;19.73;;
44270;SDS011;29963;44.594;11.368;2023-02-11T05:50:56;23.02;;;15.57;;
44270;SDS011;29963;44.594;11.368;2023-02-11T05:53:21;34.33;;;19.60;;
44270;SDS011;29963;44.594;11.368;2023-02-11T05:55:47;26.25;;;17.15;;
44270;SDS011;29963;44.594;11.368;2023-02-11T05:58:15;31.10;;;18.98;;
44270;SDS011;29963;44.594;11.368;2023-02-11T06:00:41;29.42;;;16.38;;
44270;SDS011;29963;44.594;11.368;2023-02-11T06:03:06;32.63;;;18.48;;
44270;SDS011;29963;44.594;11.368;2023-02-11T06:05:32;27.52;;;16.10;;
44270;SDS011;29963;44.594;11.368;2023-02-11T06:07:58;32.03;;;18.27;;
44270;SDS011;29963;44.594;11.368;2023-02-11T06:10:26;25.50;;;15.45;;
44270;SDS011;29963;44.594;11.368;2023-02-11T06:12:52;33.55;;;20.02;;
44270;SDS011;29963;44.594;11.368;2023-02-11T06:15:18;25.88;;;16.48;;
44270;SDS011;29963;44.594;11.368;2023-02-11T06:17:43;30.98;;;19.73;;
44270;SDS011;29963;44.594;11.368;2023-02-11T06:20:09;22.15;;;16.35;;
44270;SDS011;29963;44.594;11.368;2023-02-11T06:22:35;34.78;;;19.75;;
44270;SDS011;29963;44.594;11.368;2023-02-11T06:25:01;24.13;;;15.15;;
44270;SDS011;29963;44.594;11.368;2023-02-11T06:27:27;31.83;;;17.70;;
44270;SDS011;29963;44.594;11.368;2023-02-11T06:29:53;27.40;;;17.73;;
44270;SDS011;29963;44.594;11.368;2023-02-11T06:32:18;30.48;;;19.40;;
44270;SDS011;29963;44.594;11.368;2023-02-11T06:34:44;26.40;;;15.88;;
44270;SDS011;29963;44.594;11.368;2023-02-11T06:37:10;32.72;;;19.50;;
44270;SDS011;29963;44.594;11.368;2023-02-11T06:39:35;31.23;;;15.73;;
44270;SDS011;29963;44.594;11.368;2023-02-11T06:42:01;31.38;;;18.92;;
44270;SDS011;29963;44.594;11.368;2023-02-11T06:44:27;29.38;;;17.02;;
44270;SDS011;29963;44.594;11.368;2023-02-11T06:46:53;30.83;;;17.75;;
44270;SDS011;29963;44.594;11.368;2023-02-11T06:49:18;31.30;;;16.75;;
44270;SDS011;29963;44.594;11.368;2023-02-11T06:51:44;36.17;;;19.90;;
44270;SDS011;29963;44.594;11.368;2023-02-11T06:54:10;25.52;;;15.85;;
44270;SDS011;29963;44.594;11.368;2023-02-11T06:56:38;33.75;;;18.33;;
44270;SDS011;29963;44.594;11.368;2023-02-11T06:59:04;24.02;;;15.75;;
44270;SDS011;29963;44.594;11.368;2023-02-11T07:01:29;34.95;;;19.30;;
44270;SDS011;29963;44.594;11.368;2023-02-11T07:03:55;30.25;;;16.17;;
44270;SDS011;29963;44.594;11.368;2023-02-11T07:06:22;34.83;;;18.35;;
44270;SDS011;29963;44.594;11.368;2023-02-11T07:08:51;27.42;;;16.50;;
44270;SDS011;29963;44.594;11.368;2023-02-11T07:11:17;30.95;;;17.30;;
44270;SDS011;29963;44.594;11.368;2023-02-11T07:13:45;24.17;;;15.07;;
44270;SDS011;29963;44.594;11.368;2023-02-11T07:16:13;31.27;;;18.33;;
44270;SDS011;29963;44.594;11.368;2023-02-11T07:18:40;24.05;;;15.73;;
44270;SDS011;29963;44.594;11.368;2023-02-11T07:21:07;31.00;;;17.70;;
44270;SDS011;29963;44.594;11.368;2023-02-11T07:23:33;24.40;;;14.80;;
44270;SDS011;29963;44.594;11.368;2023-02-11T07:26:06;27.83;;;17.73;;
44270;SDS011;29963;44.594;11.368;2023-02-11T07:28:33;26.42;;;14.90;;
44270;SDS011;29963;44.594;11.368;2023-02-11T07:31:32;31.27;;;16.30;;
44270;SDS011;29963;44.594;11.368;2023-02-11T07:33:53;22.75;;;14.43;;
44270;SDS011;29963;44.594;11.368;2023-02-11T07:36:20;28.83;;;17.08;;
44270;SDS011;29963;44.594;11.368;2023-02-11T07:38:47;23.38;;;14.90;;
44270;SDS011;29963;44.594;11.368;2023-02-11T07:41:13;30.13;;;16.63;;
44270;SDS011;29963;44.594;11.368;2023-02-11T07:43:41;25.55;;;14.80;;
44270;SDS011;29963;44.594;11.368;2023-02-11T07:46:11;28.95;;;16.55;;
44270;SDS011;29963;44.594;11.368;2023-02-11T07:48:39;20.73;;;12.57;;
44270;SDS011;29963;44.594;11.368;2023-02-11T07:53:32;23.42;;;14.93;;
44270;SDS011;29963;44.594;11.368;2023-02-11T07:55:58;20.73;;;13.63;;
44270;SDS011;29963;44.594;11.368;2023-02-11T07:58:23;25.63;;;15.20;;
44270;SDS011;29963;44.594;11.368;2023-02-11T08:00:49;21.05;;;14.68;;
44270;SDS011;29963;44.594;11.368;2023-02-11T08:03:14;25.17;;;14.50;;
44270;SDS011;29963;44.594;11.368;2023-02-11T08:05:40;27.40;;;15.88;;
44270;SDS011;29963;44.594;11.368;2023-02-11T08:08:06;27.17;;;16.25;;
44270;SDS011;29963;44.594;11.368;2023-02-11T08:10:31;21.33;;;15.68;;
44270;SDS011;29963;44.594;11.368;2023-02-11T08:12:57;25.45;;;16.15;;
44270;SDS011;29963;44.594;11.368;2023-02-11T08:15:22;24.55;;;15.50;;
44270;SDS011;29963;44.594;11.368;2023-02-11T08:17:48;25.25;;;15.77;;
44270;SDS011;29963;44.594;11.368;2023-02-11T08:20:13;20.00;;;14.57;;
44270;SDS011;29963;44.594;11.368;2023-02-11T08:22:39;23.55;;;16.02;;
44270;SDS011;29963;44.594;11.368;2023-02-11T08:25:05;27.60;;;17.77;;
44270;SDS011;29963;44.594;11.368;2023-02-11T08:27:30;24.20;;;14.32;;
44270;SDS011;29963;44.594;11.368;2023-02-11T08:29:56;23.38;;;13.68;;
44270;SDS011;29963;44.594;11.368;2023-02-11T08:32:23;21.55;;;14.82;;
44270;SDS011;29963;44.594;11.368;2023-02-11T08:34:52;23.60;;;14.45;;
44270;SDS011;29963;44.594;11.368;2023-02-11T08:37:21;25.52;;;14.60;;
44270;SDS011;29963;44.594;11.368;2023-02-11T08:39:46;24.00;;;14.80;;
44270;SDS011;29963;44.594;11.368;2023-02-11T08:42:12;24.60;;;15.57;;
44270;SDS011;29963;44.594;11.368;2023-02-11T08:44:39;29.90;;;16.35;;
44270;SDS011;29963;44.594;11.368;2023-02-11T08:47:06;23.15;;;15.48;;
44270;SDS011;29963;44.594;11.368;2023-02-11T08:49:31;26.83;;;17.90;;
44270;SDS011;29963;44.594;11.368;2023-02-11T08:51:58;25.45;;;16.13;;
44270;SDS011;29963;44.594;11.368;2023-02-11T08:54:28;37.80;;;19.10;;
44270;SDS011;29963;44.594;11.368;2023-02-11T08:56:55;23.10;;;15.60;;
44270;SDS011;29963;44.594;11.368;2023-02-11T08:59:21;22.33;;;14.98;;
44270;SDS011;29963;44.594;11.368;2023-02-11T09:01:47;30.58;;;16.67;;
44270;SDS011;29963;44.594;11.368;2023-02-11T09:04:13;29.75;;;16.55;;
44270;SDS011;29963;44.594;11.368;2023-02-11T09:06:39;23.67;;;16.25;;
44270;SDS011;29963;44.594;11.368;2023-02-11T09:09:05;27.75;;;16.45;;
44270;SDS011;29963;44.594;11.368;2023-02-11T09:11:34;35.22;;;18.88;;
44270;SDS011;29963;44.594;11.368;2023-02-11T09:14:00;26.02;;;17.75;;
44270;SDS011;29963;44.594;11.368;2023-02-11T09:16:27;24.40;;;17.52;;
44270;SDS011;29963;44.594;11.368;2023-02-11T09:18:57;27.65;;;16.90;;
44270;SDS011;29963;44.594;11.368;2023-02-11T09:21:23;30.60;;;20.30;;
44270;SDS011;29963;44.594;11.368;2023-02-11T09:23:49;28.25;;;17.65;;
44270;SDS011;29963;44.594;11.368;2023-02-11T09:26:16;26.50;;;17.73;;
44270;SDS011;29963;44.594;11.368;2023-02-11T09:28:49;25.23;;;16.52;;
44270;SDS011;29963;44.594;11.368;2023-02-11T09:31:17;25.35;;;15.82;;
44270;SDS011;29963;44.594;11.368;2023-02-11T09:33:45;28.67;;;18.05;;
44270;SDS011;29963;44.594;11.368;2023-02-11T09:36:14;26.52;;;18.17;;
44270;SDS011;29963;44.594;11.368;2023-02-11T09:38:42;26.10;;;16.13;;
44270;SDS011;29963;44.594;11.368;2023-02-11T09:44:05;23.27;;;17.40;;
44270;SDS011;29963;44.594;11.368;2023-02-11T09:46:35;27.42;;;17.27;;
44270;SDS011;29963;44.594;11.368;2023-02-11T09:49:05;25.60;;;17.50;;
44270;SDS011;29963;44.594;11.368;2023-02-11T09:51:37;28.92;;;17.73;;
44270;SDS011;29963;44.594;11.368;2023-02-11T09:54:17;23.80;;;17.88;;
44270;SDS011;29963;44.594;11.368;2023-02-11T09:56:54;28.92;;;18.88;;
44270;SDS011;29963;44.594;11.368;2023-02-11T09:59:20;25.83;;;18.80;;
44270;SDS011;29963;44.594;11.368;2023-02-11T10:04:21;29.58;;;18.50;;
44270;SDS011;29963;44.594;11.368;2023-02-11T10:07:17;26.92;;;17.20;;
44270;SDS011;29963;44.594;11.368;2023-02-11T10:10:03;25.35;;;17.08;;
44270;SDS011;29963;44.594;11.368;2023-02-11T10:12:59;25.52;;;18.25;;
44270;SDS011;29963;44.594;11.368;2023-02-11T10:18:37;28.67;;;18.88;;
44270;SDS011;29963;44.594;11.368;2023-02-11T10:21:18;30.20;;;18.58;;
44270;SDS011;29963;44.594;11.368;2023-02-11T10:24:11;29.35;;;18.98;;
44270;SDS011;29963;44.594;11.368;2023-02-11T10:26:39;28.40;;;19.08;;
44270;SDS011;29963;44.594;11.368;2023-02-11T10:32:08;24.83;;;17.02;;
44270;SDS011;29963;44.594;11.368;2023-02-11T10:34:51;26.70;;;18.02;;
44270;SDS011;29963;44.594;11.368;2023-02-11T10:37:20;26.23;;;18.13;;
44270;SDS011;29963;44.594;11.368;2023-02-11T10:39:46;31.02;;;20.10;;
44270;SDS011;29963;44.594;11.368;2023-02-11T10:42:11;28.80;;;19.80;;
44270;SDS011;29963;44.594;11.368;2023-02-11T10:44:40;27.35;;;18.55;;
44270;SDS011;29963;44.594;11.368;2023-02-11T10:47:20;32.05;;;19.13;;
44270;SDS011;29963;44.594;11.368;2023-02-11T10:49:48;29.35;;;20.00;;
44270;SDS011;29963;44.594;11.368;2023-02-11T10:52:16;29.48;;;19.23;;
44270;SDS011;29963;44.594;11.368;2023-02-11T10:57:54;28.52;;;18.67;;
44270;SDS011;29963;44.594;11.368;2023-02-11T11:03:02;30.35;;;20.23;;
44270;SDS011;29963;44.594;11.368;2023-02-11T11:05:35;28.17;;;18.27;;
44270;SDS011;29963;44.594;11.368;2023-02-11T11:08:09;29.77;;;20.60;;
44270;SDS011;29963;44.594;11.368;2023-02-11T11:10:40;28.73;;;18.85;;
44270;SDS011;29963;44.594;11.368;2023-02-11T11:13:31;29.70;;;19.33;;
44270;SDS011;29963;44.594;11.368;2023-02-11T11:18:41;27.60;;;18.42;;
44270;SDS011;29963;44.594;11.368;2023-02-11T11:21:17;28.48;;;19.40;;
44270;SDS011;29963;44.594;11.368;2023-02-11T11:23:47;29.92;;;20.35;;
44270;SDS011;29963;44.594;11.368;2023-02-11T11:26:15;33.08;;;20.13;;
44270;SDS011;29963;44.594;11.368;2023-02-11T11:31:14;30.83;;;19.10;;
44270;SDS011;29963;44.594;11.368;2023-02-11T11:33:43;28.27;;;19.00;;
44270;SDS011;29963;44.594;11.368;2023-02-11T11:36:10;33.58;;;19.75;;
44270;SDS011;29963;44.594;11.368;2023-02-11T11:38:57;29.23;;;19.55;;
44270;SDS011;29963;44.594;11.368;2023-02-11T11:41:30;28.70;;;18.90;;
44270;SDS011;29963;44.594;11.368;2023-02-11T11:44:43;28.70;;;19.90;;
44270;SDS011;29963;44.594;11.368;2023-02-11T11:46:50;25.52;;;18.30;;
44270;SDS011;29963;44.594;11.368;2023-02-11T11:49:34;26.27;;;19.35;;
44270;SDS011;29963;44.594;11.368;2023-02-11T11:54:40;28.48;;;19.08;;
44270;SDS011;29963;44.594;11.368;2023-02-11T11:57:14;25.33;;;18.63;;
44270;SDS011;29963;44.594;11.368;2023-02-11T11:59:43;24.70;;;17.60;;
44270;SDS011;29963;44.594;11.368;2023-02-11T12:05:16;26.33;;;17.75;;
44270;SDS011;29963;44.594;11.368;2023-02-11T12:13:47;28.52;;;20.27;;
44270;SDS011;29963;44.594;11.368;2023-02-11T12:16:32;30.88;;;19.92;;
44270;SDS011;29963;44.594;11.368;2023-02-11T12:22:08;29.45;;;19.90;;
44270;SDS011;29963;44.594;11.368;2023-02-11T12:29:56;25.65;;;18.95;;
44270;SDS011;29963;44.594;11.368;2023-02-11T12:32:43;27.15;;;19.85;;
44270;SDS011;29963;44.594;11.368;2023-02-11T12:37:57;28.98;;;19.45;;
44270;SDS011;29963;44.594;11.368;2023-02-11T12:44:29;28.30;;;19.00;;
44270;SDS011;29963;44.594;11.368;2023-02-11T12:47:26;24.80;;;19.17;;
44270;SDS011;29963;44.594;11.368;2023-02-11T12:50:22;27.98;;;19.67;;
44270;SDS011;29963;44.594;11.368;2023-02-11T12:55:58;26.55;;;19.35;;
44270;SDS011;29963;44.594;11.368;2023-02-11T12:58:29;29.55;;;21.10;;
44270;SDS011;29963;44.594;11.368;2023-02-11T13:01:00;26.20;;;19.45;;
44270;SDS011;29963;44.594;11.368;2023-02-11T13:03:52;27.55;;;19.75;;
44270;SDS011;29963;44.594;11.368;2023-02-11T13:06:36;26.23;;;18.45;;
44270;SDS011;29963;44.594;11.368;2023-02-11T13:09:10;24.00;;;17.15;;
44270;SDS011;29963;44.594;11.368;2023-02-11T13:12:01;25.88;;;18.33;;
44270;SDS011;29963;44.594;11.368;2023-02-11T13:14:47;26.23;;;19.55;;
44270;SDS011;29963;44.594;11.368;2023-02-11T13:17:25;29.80;;;19.92;;
44270;SDS011;29963;44.594;11.368;2023-02-11T13:19:58;26.90;;;19.77;;
44270;SDS011;29963;44.594;11.368;2023-02-11T13:31:04;28.63;;;19.63;;
44270;SDS011;29963;44.594;11.368;2023-02-11T13:33:32;29.20;;;19.60;;
44270;SDS011;29963;44.594;11.368;2023-02-11T13:38:29;24.42;;;17.35;;
44270;SDS011;29963;44.594;11.368;2023-02-11T13:41:03;24.77;;;18.58;;
44270;SDS011;29963;44.594;11.368;2023-02-11T13:43:31;23.50;;;17.90;;
44270;SDS011;29963;44.594;11.368;2023-02-11T13:46:04;24.20;;;18.95;;
44270;SDS011;29963;44.594;11.368;2023-02-11T13:48:35;24.50;;;18.58;;
44270;SDS011;29963;44.594;11.368;2023-02-11T13:51:06;28.38;;;19.98;;
44270;SDS011;29963;44.594;11.368;2023-02-11T13:53:51;29.00;;;18.65;;
44270;SDS011;29963;44.594;11.368;2023-02-11T13:58:54;32.42;;;19.55;;
44270;SDS011;29963;44.594;11.368;2023-02-11T14:04:18;35.95;;;22.10;;
44270;SDS011;29963;44.594;11.368;2023-02-11T14:21:18;27.50;;;18.98;;
44270;SDS011;29963;44.594;11.368;2023-02-11T14:23:51;28.67;;;20.52;;
44270;SDS011;29963;44.594;11.368;2023-02-11T14:28:48;32.20;;;20.73;;
44270;SDS011;29963;44.594;11.368;2023-02-11T14:42:39;23.02;;;19.05;;
44270;SDS011;29963;44.594;11.368;2023-02-11T14:45:06;26.35;;;19.48;;
44270;SDS011;29963;44.594;11.368;2023-02-11T14:47:41;21.73;;;17.60;;
44270;SDS011;29963;44.594;11.368;2023-02-11T14:50:24;22.33;;;19.42;;
44270;SDS011;29963;44.594;11.368;2023-02-11T14:53:15;24.95;;;18.58;;
44270;SDS011;29963;44.594;11.368;2023-02-11T14:55:47;26.17;;;20.92;;
44270;SDS011;29963;44.594;11.368;2023-02-11T14:58:26;21.45;;;17.90;;
44270;SDS011;29963;44.594;11.368;2023-02-11T15:01:01;22.75;;;18.98;;
44270;SDS011;29963;44.594;11.368;2023-02-11T15:08:51;23.88;;;19.95;;
44270;SDS011;29963;44.594;11.368;2023-02-11T15:11:25;23.25;;;19.83;;
44270;SDS011;29963;44.594;11.368;2023-02-11T15:13:54;24.35;;;20.27;;
44270;SDS011;29963;44.594;11.368;2023-02-11T15:16:23;23.67;;;19.77;;
44270;SDS011;29963;44.594;11.368;2023-02-11T15:18:52;23.83;;;19.15;;
44270;SDS011;29963;44.594;11.368;2023-02-11T15:21:24;26.15;;;19.05;;
44270;SDS011;29963;44.594;11.368;2023-02-11T15:23:58;23.90;;;18.77;;
44270;SDS011;29963;44.594;11.368;2023-02-11T15:26:26;24.00;;;19.17;;
44270;SDS011;29963;44.594;11.368;2023-02-11T15:28:52;26.80;;;19.55;;
44270;SDS011;29963;44.594;11.368;2023-02-11T15:31:19;25.23;;;19.15;;
44270;SDS011;29963;44.594;11.368;2023-02-11T15:33:47;23.30;;;20.75;;
44270;SDS011;29963;44.594;11.368;2023-02-11T15:36:14;31.20;;;19.75;;
44270;SDS011;29963;44.594;11.368;2023-02-11T15:38:41;23.45;;;19.52;;
44270;SDS011;29963;44.594;11.368;2023-02-11T15:41:07;26.15;;;20.52;;
44270;SDS011;29963;44.594;11.368;2023-02-11T15:43:52;21.48;;;18.63;;
44270;SDS011;29963;44.594;11.368;2023-02-11T15:46:19;27.20;;;19.52;;
44270;SDS011;29963;44.594;11.368;2023-02-11T15:48:50;26.63;;;20.75;;
44270;SDS011;29963;44.594;11.368;2023-02-11T15:51:26;27.80;;;20.30;;
44270;SDS011;29963;44.594;11.368;2023-02-11T15:53:56;26.92;;;20.85;;
44270;SDS011;29963;44.594;11.368;2023-02-11T15:59:48;28.70;;;19.60;;
44270;SDS011;29963;44.594;11.368;2023-02-11T16:02:06;32.58;;;18.85;;
44270;SDS011;29963;44.594;11.368;2023-02-11T16:04:34;22.48;;;18.75;;
44270;SDS011;29963;44.594;11.368;2023-02-11T16:07:00;24.80;;;19.25;;
44270;SDS011;29963;44.594;11.368;2023-02-11T16:09:32;32.92;;;21.98;;
44270;SDS011;29963;44.594;11.368;2023-02-11T16:12:03;25.80;;;19.60;;
44270;SDS011;29963;44.594;11.368;2023-02-11T16:14:46;25.10;;;19.92;;
44270;SDS011;29963;44.594;11.368;2023-02-11T16:17:20;25.08;;;21.60;;
44270;SDS011;29963;44.594;11.368;2023-02-11T16:19:49;28.63;;;21.17;;
44270;SDS011;29963;44.594;11.368;2023-02-11T16:22:17;29.02;;;23.10;;
44270;SDS011;29963;44.594;11.368;2023-02-11T16:24:55;30.42;;;23.42;;
44270;SDS011;29963;44.594;11.368;2023-02-11T16:27:41;29.75;;;21.95;;
44270;SDS011;29963;44.594;11.368;2023-02-11T16:30:22;29.40;;;22.20;;
44270;SDS011;29963;44.594;11.368;2023-02-11T16:32:48;28.67;;;23.02;;
44270;SDS011;29963;44.594;11.368;2023-02-11T16:35:13;31.77;;;23.05;;
44270;SDS011;29963;44.594;11.368;2023-02-11T16:37:39;29.88;;;22.23;;
44270;SDS011;29963;44.594;11.368;2023-02-11T16:40:05;32.10;;;24.10;;